Main page
METAR-TAF:

METAR-TAF

Airports :

Monte Real Air Base

Monte Real, Portugal

latitude: 39-49-52N, longitude: 008-53-14W, elevation: 57 m

Current weather observation

The report was made 42 minutes ago, at 11:00 UTC
Wind 6 kt from the North, varying between Northwest and Northeast
Temperature 20°C
Humidity 68%
Pressure 1019 hPa
Visibility 10 km or more
Few clouds at a height of 1100 ft

METAR: LPMR 161100Z 01006KT 310V050 9999 FEW011 20/14 Q1019

Time: 12:42 (11:42 UTC)

Forecast

The report was made 35 minutes ago, at 11:07 UTC
Forecast valid from 16 at 12 UTC to 17 at 12 UTC
Wind 10 kt from the North
Visibility 10 km or more
no clouds below 1500 m and no cumulonimbus
Becoming
from 16 at 19 UTC to 16 at 21 UTC
Wind 5 kt from the North

TAF: LPMR 161107Z 1612/1712 35010KT CAVOK BECMG 1619/1621 36005KT

Weather observations and forecasts of more than 4000 airports (METAR and TAF reports).

The available stations are represented by yellow and red dots on the map.

Hover mouse over dot to see the name of the station.

Then click to see weather observations and forecasts.

To change the map : click on the green buttons with a black cross to zoom in, on the green button with a dash to zoom out, or on the green arrows for adjacent maps.


METAR-TAF: